createdAt,value
2023-04-10T00:01:09.304Z,69.55
2023-04-10T00:03:37.228Z,70.44
2023-04-10T00:06:04.720Z,70.28
2023-04-10T00:08:31.732Z,70.74
2023-04-10T00:10:58.802Z,70.82
2023-04-10T00:13:27.069Z,71.55
2023-04-10T00:15:54.342Z,71.08
2023-04-10T00:18:21.612Z,71.11
2023-04-10T00:20:48.646Z,72.37
2023-04-10T00:23:15.735Z,71.11
2023-04-10T00:25:42.796Z,71.27
2023-04-10T00:28:09.914Z,70.87
2023-04-10T00:30:36.958Z,69.92
2023-04-10T00:33:04.113Z,70.13
2023-04-10T00:35:31.275Z,71.31
2023-04-10T00:37:58.404Z,68.52
2023-04-10T00:40:25.775Z,68.23
2023-04-10T00:42:53.185Z,69.98
2023-04-10T00:45:20.869Z,68.29
2023-04-10T00:47:48.028Z,69.22
2023-04-10T00:50:40.081Z,69.92
2023-04-10T00:53:07.394Z,70.48
2023-04-10T00:55:34.452Z,69.69
2023-04-10T00:58:01.674Z,69.68
2023-04-10T01:00:28.944Z,68.63
2023-04-10T01:02:56.517Z,68.53
2023-04-10T01:05:24.306Z,68.59
2023-04-10T01:08:10.810Z,67.27
2023-04-10T01:11:05.475Z,66.23
2023-04-10T01:13:44.055Z,67.16
2023-04-10T01:16:23.639Z,66.65
2023-04-10T01:19:12.215Z,67.25
2023-04-10T01:21:41.855Z,66.31
2023-04-10T01:24:18.048Z,67.25
2023-04-10T01:27:12.743Z,66.27
2023-04-10T01:29:46.674Z,64.84
2023-04-10T01:32:18.488Z,66.65
2023-04-10T01:34:48.026Z,66.21
2023-04-10T01:37:24.769Z,66.54
2023-04-10T01:39:57.996Z,65.73
2023-04-10T01:42:27.089Z,66.76
2023-04-10T01:44:55.961Z,66.46
2023-04-10T01:47:24.698Z,66.42
2023-04-10T01:49:53.264Z,66.26
2023-04-10T01:52:21.593Z,66.72
2023-04-10T01:54:55.052Z,65.33
2023-04-10T01:57:31.981Z,67.06
2023-04-10T01:59:59.799Z,68.17
2023-04-10T02:02:34.308Z,67.32
2023-04-10T02:05:01.602Z,67.39
2023-04-10T02:07:45.276Z,67.14
2023-04-10T02:10:22.672Z,66.78
2023-04-10T02:12:59.482Z,66.51
2023-04-10T02:15:29.410Z,65.33
2023-04-10T02:18:04.993Z,68.16
2023-04-10T02:20:32.642Z,66.11
2023-04-10T02:23:03.759Z,66.50
2023-04-10T02:25:35.033Z,66.04
2023-04-10T02:28:06.130Z,66.41
2023-04-10T02:30:33.601Z,65.92
2023-04-10T02:33:01.534Z,66.29
2023-04-10T02:35:30.764Z,67.79
2023-04-10T02:37:57.926Z,67.56
2023-04-10T02:40:25.479Z,66.90
2023-04-10T02:43:13.132Z,67.63
2023-04-10T02:45:41.966Z,69.03
2023-04-10T02:48:11.371Z,69.86
2023-04-10T02:50:38.672Z,67.45
2023-04-10T02:53:05.882Z,67.76
2023-04-10T02:55:32.881Z,68.18
2023-04-10T02:57:59.828Z,69.13
2023-04-10T03:00:27.329Z,69.19
2023-04-10T03:03:15.112Z,69.49
2023-04-10T03:05:49.786Z,70.23
2023-04-10T03:08:21.309Z,71.07
2023-04-10T03:10:56.392Z,71.29
2023-04-10T03:13:23.871Z,69.27
2023-04-10T03:15:50.970Z,68.55
2023-04-10T03:18:18.553Z,68.40
2023-04-10T03:20:48.758Z,69.77
2023-04-10T03:23:15.983Z,69.51
2023-04-10T03:25:43.503Z,70.23
2023-04-10T03:28:11.443Z,68.84
2023-04-10T03:30:38.515Z,68.14
2023-04-10T03:33:05.661Z,69.29
2023-04-10T03:35:32.776Z,69.79
2023-04-10T03:38:00.073Z,69.71
2023-04-10T03:40:27.187Z,69.96
2023-04-10T03:42:54.339Z,70.51
2023-04-10T03:45:21.437Z,70.64
2023-04-10T03:47:48.404Z,68.92
2023-04-10T03:50:16.675Z,69.06
2023-04-10T03:52:52.617Z,71.57
2023-04-10T03:55:21.982Z,71.20
2023-04-10T03:57:50.773Z,70.44
2023-04-10T04:00:21.356Z,68.86
2023-04-10T04:02:51.107Z,70.21
2023-04-10T04:05:38.083Z,69.62
2023-04-10T04:08:29.671Z,70.80
2023-04-10T04:11:11.999Z,70.12
2023-04-10T04:13:54.213Z,69.89
2023-04-10T04:16:44.396Z,69.52
2023-04-10T04:19:30.231Z,69.52
2023-04-10T04:22:15.460Z,68.47
2023-04-10T04:25:03.360Z,68.42
2023-04-10T04:27:53.436Z,68.32
2023-04-10T04:30:35.602Z,68.23
2023-04-10T04:33:12.177Z,68.23
2023-04-10T04:35:51.098Z,70.77
2023-04-10T04:38:35.350Z,67.35
2023-04-10T04:41:08.596Z,67.49
2023-04-10T04:43:38.200Z,69.79
2023-04-10T04:46:32.741Z,69.87
2023-04-10T04:49:14.430Z,68.66
2023-04-10T04:52:04.429Z,68.28
2023-04-10T04:54:57.956Z,68.51
2023-04-10T04:57:42.766Z,71.38
2023-04-10T05:00:26.924Z,69.89
2023-04-10T05:03:07.238Z,70.78
2023-04-10T05:05:43.464Z,70.80
2023-04-10T05:08:30.991Z,69.76
2023-04-10T05:11:21.415Z,66.74
2023-04-10T05:13:56.476Z,66.56
2023-04-10T05:16:23.852Z,66.77
2023-04-10T05:19:09.268Z,68.20
2023-04-10T05:21:51.737Z,68.40
2023-04-10T05:24:26.267Z,67.14
2023-04-10T05:27:14.846Z,68.66
2023-04-10T05:30:01.455Z,66.54
2023-04-10T05:32:46.976Z,68.04
2023-04-10T05:35:40.503Z,66.17
2023-04-10T05:38:39.895Z,68.37
2023-04-10T05:41:12.676Z,69.87
2023-04-10T05:43:55.593Z,69.77
2023-04-10T05:46:31.928Z,69.19
2023-04-10T05:49:06.846Z,69.36
2023-04-10T05:51:54.268Z,70.03
2023-04-10T05:54:23.883Z,66.27
2023-04-10T05:57:14.176Z,67.92
2023-04-10T06:00:01.594Z,65.50
2023-04-10T06:02:49.217Z,65.44
2023-04-10T06:05:23.566Z,66.72
2023-04-10T06:07:58.387Z,66.89
2023-04-10T06:10:29.801Z,68.39
2023-04-10T06:12:57.205Z,69.09
2023-04-10T06:15:25.863Z,65.81
2023-04-10T06:17:54.257Z,65.88
2023-04-10T06:20:21.820Z,68.62
2023-04-10T06:22:50.892Z,67.04
2023-04-10T06:25:18.090Z,67.70
2023-04-10T06:27:45.322Z,67.49
2023-04-10T06:30:13.379Z,64.92
2023-04-10T06:32:41.225Z,65.91
2023-04-10T06:35:09.104Z,65.84
2023-04-10T06:37:36.538Z,65.26
2023-04-10T06:40:11.509Z,67.18
2023-04-10T06:42:39.490Z,66.98
2023-04-10T06:45:15.089Z,67.65
2023-04-10T06:47:42.281Z,67.92
2023-04-10T06:50:09.868Z,66.96
2023-04-10T06:52:37.011Z,66.42
2023-04-10T06:55:04.480Z,65.42
2023-04-10T06:57:31.836Z,65.80
2023-04-10T06:59:58.925Z,65.93
2023-04-10T07:02:26.216Z,64.90
2023-04-10T07:04:53.903Z,63.66
2023-04-10T07:07:21.565Z,64.25
2023-04-10T07:09:48.736Z,65.59
2023-04-10T07:12:16.711Z,64.38
2023-04-10T07:14:45.069Z,67.14
2023-04-10T07:17:14.462Z,66.22
2023-04-10T07:19:41.759Z,66.76
2023-04-10T07:22:09.013Z,66.77
2023-04-10T07:24:36.599Z,66.82
2023-04-10T07:27:03.907Z,67.33
2023-04-10T07:29:31.458Z,68.09
2023-04-10T07:31:58.918Z,69.65
2023-04-10T07:34:26.713Z,66.45
2023-04-10T07:36:54.063Z,65.60
2023-04-10T07:39:21.329Z,66.66
2023-04-10T07:41:48.666Z,67.06
2023-04-10T07:44:17.806Z,65.49
2023-04-10T07:46:44.945Z,65.58
2023-04-10T07:49:12.479Z,67.16
2023-04-10T07:51:40.013Z,67.75
2023-04-10T07:54:07.221Z,68.55
2023-04-10T07:56:34.320Z,67.90
2023-04-10T07:59:01.534Z,67.54
2023-04-10T08:01:29.096Z,67.00
2023-04-10T08:03:59.134Z,67.03
2023-04-10T08:06:26.486Z,63.18
2023-04-10T08:08:54.049Z,65.10
2023-04-10T08:11:43.233Z,65.89
2023-04-10T08:14:10.745Z,64.12
2023-04-10T08:16:39.361Z,64.26
2023-04-10T08:19:06.609Z,62.32
2023-04-10T08:21:34.003Z,64.72
2023-04-10T08:24:03.793Z,63.48
2023-04-10T08:26:32.388Z,65.45
2023-04-10T08:29:00.991Z,65.30
2023-04-10T08:31:33.814Z,60.68
2023-04-10T08:34:01.111Z,60.83
2023-04-10T08:36:28.485Z,64.63
2023-04-10T08:38:55.599Z,65.06
2023-04-10T08:41:22.673Z,65.41
2023-04-10T08:43:51.181Z,65.66
2023-04-10T08:46:18.340Z,64.43
2023-04-10T08:48:53.943Z,63.85
2023-04-10T08:51:27.007Z,64.46
2023-04-10T08:54:01.212Z,64.60
2023-04-10T08:56:28.478Z,65.09
2023-04-10T08:58:55.764Z,66.53
2023-04-10T09:01:23.677Z,65.88
2023-04-10T09:03:51.655Z,66.27
2023-04-10T09:06:18.905Z,65.35
2023-04-10T09:08:45.973Z,65.56
2023-04-10T09:11:13.726Z,63.85
2023-04-10T09:13:43.874Z,65.11
2023-04-10T09:16:12.880Z,64.92
2023-04-10T09:18:49.644Z,62.31
2023-04-10T09:21:19.231Z,63.83
2023-04-10T09:23:48.032Z,64.55
2023-04-10T09:26:26.920Z,63.50
2023-04-10T09:29:03.695Z,63.08
2023-04-10T09:31:33.773Z,64.13
2023-04-10T09:34:22.598Z,64.38
2023-04-10T09:36:58.036Z,63.05
2023-04-10T09:39:37.184Z,62.42
2023-04-10T09:42:04.849Z,63.16
2023-04-10T09:44:34.560Z,64.08
2023-04-10T09:47:24.774Z,65.06
2023-04-10T09:49:53.858Z,64.27
2023-04-10T09:52:30.283Z,62.63
2023-04-10T09:55:00.119Z,63.45
2023-04-10T09:57:28.848Z,64.02
2023-04-10T09:59:58.733Z,65.04
2023-04-10T10:02:29.561Z,62.83
2023-04-10T10:05:00.933Z,62.34
2023-04-10T10:07:29.955Z,63.64
2023-04-10T10:09:58.413Z,63.50
2023-04-10T10:12:39.886Z,63.55
2023-04-10T10:15:17.233Z,62.15
2023-04-10T10:17:51.610Z,63.52
2023-04-10T10:20:22.543Z,64.53
2023-04-10T10:22:50.571Z,65.09
2023-04-10T10:25:20.349Z,66.02
2023-04-10T10:27:50.927Z,65.35
2023-04-10T10:30:29.443Z,66.00
2023-04-10T10:32:59.136Z,66.76
2023-04-10T10:35:32.251Z,66.27
2023-04-10T10:38:00.652Z,65.96
2023-04-10T10:40:32.925Z,66.34
2023-04-10T10:43:15.368Z,66.38
2023-04-10T10:46:00.627Z,67.18
2023-04-10T10:48:27.788Z,66.15
2023-04-10T10:51:00.467Z,66.49
2023-04-10T10:53:40.911Z,67.24
2023-04-10T10:56:37.463Z,64.21
2023-04-10T10:59:04.623Z,65.31
2023-04-10T11:01:31.815Z,62.20
2023-04-10T11:04:00.286Z,64.08
2023-04-10T11:06:53.821Z,65.43
2023-04-10T11:09:47.599Z,63.42
2023-04-10T11:12:15.783Z,62.85
2023-04-10T11:14:45.376Z,64.92
2023-04-10T11:17:12.904Z,65.13
2023-04-10T11:20:01.104Z,64.64
2023-04-10T11:22:28.386Z,66.96
2023-04-10T11:25:00.795Z,67.86
2023-04-10T11:27:48.736Z,68.07
2023-04-10T11:30:36.367Z,68.94
2023-04-10T11:33:04.795Z,68.78
2023-04-10T11:35:33.121Z,69.08
2023-04-10T11:38:13.327Z,68.33
2023-04-10T11:40:58.002Z,68.03
2023-04-10T11:43:25.068Z,67.68
2023-04-10T11:46:02.951Z,66.88
2023-04-10T11:48:30.972Z,67.80
2023-04-10T11:50:58.231Z,68.24
2023-04-10T11:53:26.873Z,68.51
2023-04-10T11:55:54.172Z,68.12
2023-04-10T11:58:26.387Z,66.66
2023-04-10T12:01:03.043Z,67.16
2023-04-10T12:03:38.020Z,67.33
2023-04-10T12:06:09.563Z,67.68
2023-04-10T12:08:41.890Z,67.90
2023-04-10T12:11:11.082Z,66.98
2023-04-10T12:13:38.595Z,66.65
2023-04-10T12:16:08.551Z,66.40
2023-04-10T12:18:36.103Z,67.31
2023-04-10T12:21:05.071Z,67.16
2023-04-10T12:23:34.049Z,67.18
2023-04-10T12:26:08.815Z,67.26
2023-04-10T12:28:36.760Z,67.04
2023-04-10T12:31:03.966Z,67.50
2023-04-10T12:33:31.310Z,66.97
2023-04-10T12:35:59.373Z,67.15
2023-04-10T12:38:39.341Z,66.26
2023-04-10T12:41:07.360Z,66.21
2023-04-10T12:43:37.104Z,66.52
2023-04-10T12:46:05.650Z,67.53
2023-04-10T12:48:33.131Z,67.23
2023-04-10T12:51:01.008Z,66.99
2023-04-10T12:53:28.489Z,65.88
2023-04-10T12:55:59.905Z,65.64
2023-04-10T12:58:31.351Z,67.25
2023-04-10T13:01:13.108Z,67.87
2023-04-10T13:03:41.185Z,67.11
2023-04-10T13:06:08.942Z,66.43
2023-04-10T13:08:36.629Z,67.17
2023-04-10T13:11:04.076Z,67.64
2023-04-10T13:13:33.112Z,66.95
2023-04-10T13:16:00.602Z,66.35
2023-04-10T13:18:28.114Z,66.86
2023-04-10T13:20:55.452Z,65.26
2023-04-10T13:23:22.602Z,65.65
2023-04-10T13:25:50.006Z,66.60
2023-04-10T13:28:19.243Z,64.16
2023-04-10T13:30:46.849Z,65.51
2023-04-10T13:33:14.392Z,66.17
2023-04-10T13:35:41.506Z,66.66
2023-04-10T13:38:09.655Z,67.26
2023-04-10T13:40:36.792Z,68.04
2023-04-10T13:43:03.999Z,68.91
2023-04-10T13:45:31.156Z,68.59
2023-04-10T13:47:58.309Z,66.12
2023-04-10T13:50:33.005Z,67.44
2023-04-10T13:53:00.166Z,68.19
2023-04-10T13:55:27.274Z,68.72
2023-04-10T13:57:54.357Z,68.52
2023-04-10T14:00:22.257Z,67.61
2023-04-10T14:02:49.485Z,67.35
2023-04-10T14:05:16.671Z,67.32
2023-04-10T14:07:43.809Z,66.50
2023-04-10T14:10:11.109Z,67.68
2023-04-10T14:12:38.220Z,67.50
2023-04-10T14:15:06.049Z,67.50
2023-04-10T14:17:33.140Z,67.16
2023-04-10T14:20:00.275Z,68.39
2023-04-10T14:22:34.731Z,69.43
2023-04-10T14:25:11.683Z,70.28
2023-04-10T14:27:40.052Z,69.99
2023-04-10T14:30:08.035Z,69.92
2023-04-10T14:32:35.350Z,70.11
2023-04-10T14:35:02.535Z,70.44
2023-04-10T14:37:29.671Z,68.67
2023-04-10T14:39:57.636Z,69.73
2023-04-10T14:42:24.705Z,70.17
2023-04-10T14:44:51.706Z,70.14
2023-04-10T14:47:18.791Z,69.79
2023-04-10T14:49:45.964Z,68.01
2023-04-10T14:52:13.115Z,69.08
2023-04-10T14:54:40.227Z,67.83
2023-04-10T14:57:07.389Z,69.24
2023-04-10T14:59:34.436Z,69.04
2023-04-10T15:02:01.359Z,67.26
2023-04-10T15:04:28.480Z,68.61
2023-04-10T15:06:55.597Z,69.33
2023-04-10T15:09:22.718Z,69.17
2023-04-10T15:11:49.906Z,70.78
2023-04-10T15:14:17.051Z,70.43
2023-04-10T15:16:44.182Z,70.64
2023-04-10T15:19:11.373Z,70.21
2023-04-10T15:21:38.454Z,70.20
2023-04-10T15:24:05.801Z,69.59
2023-04-10T15:26:32.980Z,70.36
2023-04-10T15:29:00.021Z,70.12
2023-04-10T15:31:27.168Z,70.14
2023-04-10T15:33:54.566Z,70.05
2023-04-10T15:36:21.942Z,70.95
2023-04-10T15:38:50.353Z,70.56
2023-04-10T15:41:17.649Z,70.67
2023-04-10T15:43:44.782Z,70.71
2023-04-10T15:46:12.220Z,70.81
2023-04-10T15:48:39.424Z,71.44
2023-04-10T15:51:07.340Z,71.25
2023-04-10T15:53:35.477Z,70.93
2023-04-10T15:56:05.580Z,71.30
2023-04-10T15:58:33.895Z,70.98
2023-04-10T16:01:01.759Z,70.86
2023-04-10T16:03:30.548Z,70.86
2023-04-10T16:05:58.511Z,69.45
2023-04-10T16:08:26.562Z,69.28
2023-04-10T16:10:54.374Z,69.41
2023-04-10T16:13:21.744Z,69.67
2023-04-10T16:15:49.686Z,69.72
2023-04-10T16:18:16.834Z,69.63
2023-04-10T16:20:44.236Z,69.50
2023-04-10T16:23:11.464Z,69.90
2023-04-10T16:25:38.680Z,70.90
2023-04-10T16:28:08.206Z,70.90
2023-04-10T16:30:36.362Z,70.67
2023-04-10T16:33:04.384Z,69.90
2023-04-10T16:35:32.060Z,69.96
2023-04-10T16:37:59.446Z,70.85
2023-04-10T16:40:32.481Z,70.34
2023-04-10T16:43:02.845Z,70.65
2023-04-10T16:45:30.671Z,70.79
2023-04-10T16:47:57.825Z,70.83
2023-04-10T16:50:25.000Z,71.14
2023-04-10T16:52:52.053Z,70.94
2023-04-10T16:55:19.299Z,70.62
2023-04-10T16:57:46.591Z,71.50
2023-04-10T17:00:14.173Z,71.65
2023-04-10T17:02:42.968Z,72.16
2023-04-10T17:05:11.316Z,71.69
2023-04-10T17:07:38.446Z,71.34
2023-04-10T17:10:06.081Z,71.74
2023-04-10T17:12:33.256Z,71.76
2023-04-10T17:15:04.141Z,70.10
2023-04-10T17:17:31.950Z,71.36
2023-04-10T17:19:59.378Z,71.50
2023-04-10T17:22:26.667Z,71.85
2023-04-10T17:24:53.757Z,70.95
2023-04-10T17:27:20.966Z,69.96
2023-04-10T17:29:48.054Z,71.17
2023-04-10T17:32:15.166Z,72.08
2023-04-10T17:34:42.274Z,70.49
2023-04-10T17:37:09.242Z,71.22
2023-04-10T17:39:36.377Z,70.83
2023-04-10T17:42:03.646Z,71.50
2023-04-10T17:44:31.522Z,72.60
2023-04-10T17:46:58.672Z,73.10
2023-04-10T17:49:26.088Z,73.60
2023-04-10T17:51:53.286Z,73.44
2023-04-10T17:54:20.431Z,72.60
2023-04-10T17:56:47.592Z,73.18
2023-04-10T17:59:14.729Z,73.53
2023-04-10T18:01:41.945Z,71.78
2023-04-10T18:04:09.283Z,72.66
2023-04-10T18:06:36.403Z,72.21
2023-04-10T18:09:03.731Z,72.81
2023-04-10T18:11:30.971Z,74.02
2023-04-10T18:13:57.976Z,73.35
2023-04-10T18:16:25.305Z,73.64
2023-04-10T18:18:52.787Z,73.89
2023-04-10T18:21:21.135Z,73.78
2023-04-10T18:23:48.286Z,74.22
2023-04-10T18:26:15.482Z,74.35
2023-04-10T18:28:43.564Z,74.80
2023-04-10T18:31:12.671Z,74.60
2023-04-10T18:33:39.843Z,75.36
2023-04-10T18:36:07.347Z,76.38
2023-04-10T18:38:34.804Z,76.81
2023-04-10T18:41:01.870Z,76.16
2023-04-10T18:43:31.218Z,76.79
2023-04-10T18:45:58.421Z,77.15
2023-04-10T18:48:25.467Z,77.76
2023-04-10T18:50:55.909Z,77.88
2023-04-10T18:53:23.161Z,77.81
2023-04-10T18:55:53.413Z,77.22
2023-04-10T18:58:21.686Z,74.96
2023-04-10T19:00:49.041Z,74.90
2023-04-10T19:03:16.515Z,74.26
2023-04-10T19:05:43.943Z,72.61
2023-04-10T19:08:14.766Z,72.99
2023-04-10T19:10:43.040Z,72.13
2023-04-10T19:13:12.228Z,71.67
2023-04-10T19:15:44.897Z,71.86
2023-04-10T19:18:14.038Z,73.68
2023-04-10T19:20:50.313Z,73.84
2023-04-10T19:23:20.117Z,74.58
2023-04-10T19:25:50.998Z,73.81
2023-04-10T19:28:18.239Z,74.58
2023-04-10T19:30:45.659Z,75.19
2023-04-10T19:33:12.905Z,73.87
2023-04-10T19:35:40.209Z,74.57
2023-04-10T19:38:07.477Z,71.38
2023-04-10T19:40:36.158Z,72.86
2023-04-10T19:43:03.461Z,71.08
2023-04-10T19:45:32.545Z,70.30
2023-04-10T19:48:00.456Z,75.26
2023-04-10T19:50:29.760Z,71.21
2023-04-10T19:52:57.452Z,71.94
2023-04-10T19:55:24.679Z,71.29
2023-04-10T19:57:52.111Z,70.53
2023-04-10T20:00:19.479Z,71.50
2023-04-10T20:02:46.818Z,73.55
2023-04-10T20:05:14.152Z,72.35
2023-04-10T20:07:41.422Z,71.28
2023-04-10T20:10:08.965Z,71.91
2023-04-10T20:12:36.292Z,71.76
2023-04-10T20:15:04.268Z,70.69
2023-04-10T20:17:31.405Z,70.98
2023-04-10T20:19:58.525Z,71.40
2023-04-10T20:22:25.760Z,72.02
2023-04-10T20:24:53.029Z,71.94
2023-04-10T20:27:20.133Z,71.56
2023-04-10T20:29:47.381Z,71.21
2023-04-10T20:32:14.454Z,71.28
2023-04-10T20:34:41.719Z,71.97
2023-04-10T20:37:08.791Z,71.08
2023-04-10T20:39:37.899Z,72.30
2023-04-10T20:42:06.392Z,71.71
2023-04-10T20:44:37.843Z,72.96
2023-04-10T20:47:07.844Z,71.75
2023-04-10T20:49:37.611Z,72.26
2023-04-10T20:52:05.341Z,72.05
2023-04-10T20:54:33.325Z,72.75
2023-04-10T20:57:25.397Z,73.14
2023-04-10T20:59:52.589Z,73.32
2023-04-10T21:02:19.987Z,73.63
2023-04-10T21:04:47.268Z,73.28
2023-04-10T21:07:14.486Z,72.62
2023-04-10T21:09:41.619Z,72.74
2023-04-10T21:12:08.767Z,72.70
2023-04-10T21:14:41.954Z,72.19
2023-04-10T21:17:09.088Z,72.46
2023-04-10T21:19:36.171Z,72.55
2023-04-10T21:22:03.351Z,72.09
2023-04-10T21:24:30.601Z,72.19
2023-04-10T21:26:57.682Z,72.97
2023-04-10T21:29:25.015Z,72.95
2023-04-10T21:31:52.250Z,72.81
2023-04-10T21:34:19.917Z,73.23
2023-04-10T21:36:47.348Z,73.37
2023-04-10T21:39:14.398Z,73.47
2023-04-10T21:41:41.786Z,72.73
2023-04-10T21:44:08.971Z,73.38
2023-04-10T21:46:36.213Z,73.08
2023-04-10T21:49:03.396Z,73.27
2023-04-10T21:51:31.159Z,73.20
2023-04-10T21:53:58.385Z,73.17
2023-04-10T21:56:26.328Z,73.26
2023-04-10T21:58:53.722Z,73.33
2023-04-10T22:01:21.301Z,73.36
2023-04-10T22:03:48.494Z,73.23
2023-04-10T22:06:16.207Z,73.69
2023-04-10T22:08:43.700Z,74.03
2023-04-10T22:11:11.352Z,74.82
2023-04-10T22:13:38.728Z,75.82
2023-04-10T22:16:07.202Z,75.83
2023-04-10T22:18:34.328Z,76.28
2023-04-10T22:21:01.374Z,77.07
2023-04-10T22:23:28.702Z,76.91
2023-04-10T22:25:56.148Z,76.95
2023-04-10T22:28:23.671Z,78.25
2023-04-10T22:30:51.107Z,78.44
2023-04-10T22:33:18.467Z,78.03
2023-04-10T22:35:46.196Z,78.34
2023-04-10T22:38:13.792Z,78.41
2023-04-10T22:40:40.899Z,78.95
2023-04-10T22:43:08.052Z,78.21
2023-04-10T22:45:35.009Z,78.03
2023-04-10T22:48:02.208Z,78.32
2023-04-10T22:50:31.514Z,77.09
2023-04-10T22:52:58.547Z,76.97
2023-04-10T22:55:25.738Z,76.71
2023-04-10T22:57:52.786Z,77.79
2023-04-10T23:00:20.601Z,78.59
2023-04-10T23:02:47.945Z,78.87
2023-04-10T23:05:15.151Z,79.24
2023-04-10T23:07:42.223Z,79.22
2023-04-10T23:10:09.493Z,79.17
2023-04-10T23:12:37.987Z,79.69
2023-04-10T23:15:07.777Z,79.22
2023-04-10T23:17:35.128Z,79.29
2023-04-10T23:20:02.468Z,79.78
2023-04-10T23:22:29.850Z,79.64
2023-04-10T23:24:57.855Z,80.63
2023-04-10T23:27:25.006Z,80.04
2023-04-10T23:29:52.376Z,80.63
2023-04-10T23:32:19.737Z,80.97
2023-04-10T23:34:46.745Z,81.84
2023-04-10T23:37:13.800Z,81.46
2023-04-10T23:39:41.014Z,80.50
2023-04-10T23:42:08.555Z,81.31
2023-04-10T23:44:35.880Z,81.62
2023-04-10T23:47:03.162Z,82.08
2023-04-10T23:49:30.486Z,82.46
2023-04-10T23:51:57.848Z,81.38
2023-04-10T23:54:24.962Z,80.96
2023-04-10T23:56:52.008Z,80.96
2023-04-10T23:59:19.302Z,81.08
